Accueil
METAR-TAF:

METAR-TAF

Aéroports :

Aéroport de La Réunion Roland-Garros

Saint-Denis, Réunion

latitude: 20-53S, longitude: 055-31E, altitude: 21 m

Observation

Le bulletin a été fait il y a 36 minutes, à 17:30 UTC
Vent 7 kt de sud, variant entre sud-est et sud
Température 22°C
Humidité 78%
Pression 1020 hPa
Visibilité 10 km ou plus

METAR: FMEE 191730Z AUTO 18007KT 130V190 9999 FEW043/// OVC068/// 22/18 Q1020 NOSIG

Heure: 22:06 (18:06 UTC)

Prévision

Le bulletin a été fait il y a 1 heure et 6 minutes, à 17:00 UTC
Prévision valable du 19 à 18 UTC au 20 à 24 UTC
Vent 5 kt de sud
Visibilité 10 km ou plus
Nuages épars à une hauteur de 3000 ft
Evoluant progressivement
du 20 à 04 UTC au 20 à 06 UTC
Vent 10 kt de est
Evoluant progressivement
du 20 à 14 UTC au 20 à 16 UTC
Vent 5 kt de sud

TAF: FMEE 191700Z 1918/2024 17005KT 9999 SCT030 BECMG 2004/2006 09010KT BECMG 2014/2016 17005KT

Observations et prévisions météorologiques de plus de 4000 aéroports (messages METAR et TAF).

Les stations disponibles sont représentées par des disques jaunes et rouges sur la carte.

Passer la souris dessus pour voir le nom de la station.

Cliquer dessus pour voir les observations et prévisions météorologiques.

Pour changer de carte: cliquez sur les boutons verts avec une croix noire pour zoomer, sur le bouton vert avec un tiret pour effectuer un zoom arrière, ou sur les flèches vertes pour les cartes adjacentes.


METAR-TAF: